sensor_id;sensor_type;location;lat;lon;timestamp;pressure;altitude;pressure_sealevel;temperature;humidity
39435;BME280;66825;51.880;-0.518;2023-04-16T00:01:56;101577.47;;;19.03;37.57
39435;BME280;66825;51.880;-0.518;2023-04-16T00:04:22;101492.56;;;18.50;37.67
39435;BME280;66825;51.880;-0.518;2023-04-16T00:06:47;101575.84;;;19.02;37.63
39435;BME280;66825;51.880;-0.518;2023-04-16T00:09:13;101579.38;;;19.03;37.66
39435;BME280;66825;51.880;-0.518;2023-04-16T00:11:38;101571.19;;;19.03;37.74
39435;BME280;66825;51.880;-0.518;2023-04-16T00:14:03;101577.47;;;19.03;37.66
39435;BME280;66825;51.880;-0.518;2023-04-16T00:16:29;101573.91;;;19.03;37.69
39435;BME280;66825;51.880;-0.518;2023-04-16T00:18:54;101579.38;;;19.03;37.65
39435;BME280;66825;51.880;-0.518;2023-04-16T00:21:20;101563.88;;;18.93;37.82
39435;BME280;66825;51.880;-0.518;2023-04-16T00:23:45;101581.31;;;19.02;37.60
39435;BME280;66825;51.880;-0.518;2023-04-16T00:26:11;101576.66;;;19.03;37.63
39435;BME280;66825;51.880;-0.518;2023-04-16T00:28:36;101577.75;;;19.02;37.62
39435;BME280;66825;51.880;-0.518;2023-04-16T00:31:02;101572.28;;;19.02;37.59
39435;BME280;66825;51.880;-0.518;2023-04-16T00:33:27;101575.00;;;19.02;37.63
39435;BME280;66825;51.880;-0.518;2023-04-16T00:35:54;101545.84;;;18.87;37.74
39435;BME280;66825;51.880;-0.518;2023-04-16T00:38:20;101571.47;;;19.01;37.68
39435;BME280;66825;51.880;-0.518;2023-04-16T00:40:45;101572.28;;;19.02;37.87
39435;BME280;66825;51.880;-0.518;2023-04-16T00:43:20;101557.84;;;18.96;37.81
39435;BME280;66825;51.880;-0.518;2023-04-16T00:45:45;101561.66;;;19.00;37.74
39435;BME280;66825;51.880;-0.518;2023-04-16T00:48:11;101569.03;;;19.00;37.41
39435;BME280;66825;51.880;-0.518;2023-04-16T00:50:37;101563.28;;;19.01;37.69
39435;BME280;66825;51.880;-0.518;2023-04-16T00:53:02;101569.84;;;19.00;37.86
39435;BME280;66825;51.880;-0.518;2023-04-16T00:55:28;101571.75;;;19.00;37.71
39435;BME280;66825;51.880;-0.518;2023-04-16T00:57:53;101567.94;;;19.01;37.62
39435;BME280;66825;51.880;-0.518;2023-04-16T01:00:19;101557.56;;;18.98;37.62
39435;BME280;66825;51.880;-0.518;2023-04-16T01:02:45;101569.84;;;19.00;37.57
39435;BME280;66825;51.880;-0.518;2023-04-16T01:05:11;101515.97;;;18.66;37.97
39435;BME280;66825;51.880;-0.518;2023-04-16T01:07:36;101564.38;;;19.00;37.69
39435;BME280;66825;51.880;-0.518;2023-04-16T01:10:02;101569.03;;;19.00;37.57
39435;BME280;66825;51.880;-0.518;2023-04-16T01:12:29;101566.31;;;19.00;37.65
39435;BME280;66825;51.880;-0.518;2023-04-16T01:14:55;101571.75;;;19.00;37.66
39435;BME280;66825;51.880;-0.518;2023-04-16T01:17:20;101534.44;;;18.80;37.76
39435;BME280;66825;51.880;-0.518;2023-04-16T01:19:45;101569.03;;;19.00;37.66
39435;BME280;66825;51.880;-0.518;2023-04-16T01:22:11;101570.13;;;18.99;37.52
39435;BME280;66825;51.880;-0.518;2023-04-16T01:24:37;101556.50;;;18.94;37.69
39435;BME280;66825;51.880;-0.518;2023-04-16T01:27:02;101558.13;;;18.95;37.65
39435;BME280;66825;51.880;-0.518;2023-04-16T01:29:28;101563.84;;;18.98;37.69
39435;BME280;66825;51.880;-0.518;2023-04-16T01:31:53;101564.66;;;18.99;37.64
39435;BME280;66825;51.880;-0.518;2023-04-16T01:34:18;101561.94;;;18.99;37.74
39435;BME280;66825;51.880;-0.518;2023-04-16T01:36:44;101572.84;;;18.99;37.71
39435;BME280;66825;51.880;-0.518;2023-04-16T01:39:09;101549.13;;;18.89;37.78
39435;BME280;66825;51.880;-0.518;2023-04-16T01:41:38;101563.84;;;18.98;37.62
39435;BME280;66825;51.880;-0.518;2023-04-16T01:44:04;101567.41;;;18.99;37.62
39435;BME280;66825;51.880;-0.518;2023-04-16T01:46:33;101544.22;;;18.86;37.84
39435;BME280;66825;51.880;-0.518;2023-04-16T01:49:00;101563.84;;;18.98;37.71
39435;BME280;66825;51.880;-0.518;2023-04-16T01:51:26;101568.50;;;18.98;37.80
39435;BME280;66825;51.880;-0.518;2023-04-16T01:53:53;101559.19;;;18.99;37.70
39435;BME280;66825;51.880;-0.518;2023-04-16T01:56:18;101573.94;;;18.98;37.75
39435;BME280;66825;51.880;-0.518;2023-04-16T01:58:44;101570.41;;;18.97;37.75
39435;BME280;66825;51.880;-0.518;2023-04-16T02:01:12;101573.16;;;18.97;37.90
39435;BME280;66825;51.880;-0.518;2023-04-16T02:03:37;101567.97;;;18.91;37.77
39435;BME280;66825;51.880;-0.518;2023-04-16T02:06:03;101573.94;;;18.98;37.69
39435;BME280;66825;51.880;-0.518;2023-04-16T02:08:29;101573.16;;;18.97;37.66
39435;BME280;66825;51.880;-0.518;2023-04-16T02:10:55;101576.97;;;18.96;37.59
39435;BME280;66825;51.880;-0.518;2023-04-16T02:13:21;101574.25;;;18.96;37.64
39435;BME280;66825;51.880;-0.518;2023-04-16T02:15:49;101571.50;;;18.96;37.71
39435;BME280;66825;51.880;-0.518;2023-04-16T02:18:15;101576.97;;;18.96;37.63
39435;BME280;66825;51.880;-0.518;2023-04-16T02:20:42;101568.78;;;18.96;37.64
39435;BME280;66825;51.880;-0.518;2023-04-16T02:23:08;101567.94;;;18.96;37.59
39435;BME280;66825;51.880;-0.518;2023-04-16T02:25:41;101564.41;;;18.95;37.67
39435;BME280;66825;51.880;-0.518;2023-04-16T02:28:08;101566.06;;;18.96;37.66
39435;BME280;66825;51.880;-0.518;2023-04-16T02:30:35;101535.53;;;18.79;37.65
39435;BME280;66825;51.880;-0.518;2023-04-16T02:33:02;101564.41;;;18.95;37.62
39435;BME280;66825;51.880;-0.518;2023-04-16T02:35:30;101573.41;;;18.96;37.60
39435;BME280;66825;51.880;-0.518;2023-04-16T02:37:56;101561.69;;;18.95;37.78
39435;BME280;66825;51.880;-0.518;2023-04-16T02:40:21;101544.25;;;18.81;37.72
39435;BME280;66825;51.880;-0.518;2023-04-16T02:42:46;101569.88;;;18.95;37.85
39435;BME280;66825;51.880;-0.518;2023-04-16T02:45:12;101569.03;;;18.95;37.64
39435;BME280;66825;51.880;-0.518;2023-04-16T02:47:37;101572.59;;;18.95;37.80
39435;BME280;66825;51.880;-0.518;2023-04-16T02:50:03;101566.31;;;18.95;37.62
39435;BME280;66825;51.880;-0.518;2023-04-16T02:52:29;101579.16;;;18.94;37.69
39435;BME280;66825;51.880;-0.518;2023-04-16T02:54:56;101573.69;;;18.94;37.60
39435;BME280;66825;51.880;-0.518;2023-04-16T02:57:21;101574.50;;;18.95;37.87
39435;BME280;66825;51.880;-0.518;2023-04-16T02:59:47;101576.44;;;18.94;37.61
39435;BME280;66825;51.880;-0.518;2023-04-16T03:02:12;101573.69;;;18.94;37.81
39435;BME280;66825;51.880;-0.518;2023-04-16T03:04:38;101557.09;;;18.80;37.68
39435;BME280;66825;51.880;-0.518;2023-04-16T03:07:03;101577.53;;;18.93;37.58
39435;BME280;66825;51.880;-0.518;2023-04-16T03:09:28;101574.50;;;18.95;37.71
39435;BME280;66825;51.880;-0.518;2023-04-16T03:11:54;101573.69;;;18.94;37.70
39435;BME280;66825;51.880;-0.518;2023-04-16T03:14:20;101570.97;;;18.94;37.68
39435;BME280;66825;51.880;-0.518;2023-04-16T03:16:45;101576.44;;;18.94;37.64
39435;BME280;66825;51.880;-0.518;2023-04-16T03:19:11;101564.72;;;18.94;37.72
39435;BME280;66825;51.880;-0.518;2023-04-16T03:21:36;101561.13;;;18.93;37.72
39435;BME280;66825;51.880;-0.518;2023-04-16T03:24:02;101567.44;;;18.94;37.60
39435;BME280;66825;51.880;-0.518;2023-04-16T03:26:27;101564.72;;;18.94;37.66
39435;BME280;66825;51.880;-0.518;2023-04-16T03:28:53;101562.25;;;18.92;37.70
39435;BME280;66825;51.880;-0.518;2023-04-16T03:31:18;101560.34;;;18.93;37.75
39435;BME280;66825;51.880;-0.518;2023-04-16T03:33:44;101554.03;;;18.92;37.74
39435;BME280;66825;51.880;-0.518;2023-04-16T03:36:10;101534.44;;;18.80;37.76
39435;BME280;66825;51.880;-0.518;2023-04-16T03:38:35;101537.16;;;18.80;37.76
39435;BME280;66825;51.880;-0.518;2023-04-16T03:41:00;101554.88;;;18.93;37.62
39435;BME280;66825;51.880;-0.518;2023-04-16T03:43:26;101549.66;;;18.91;37.90
39435;BME280;66825;51.880;-0.518;2023-04-16T03:45:51;101549.66;;;18.91;37.88
39435;BME280;66825;51.880;-0.518;2023-04-16T03:48:17;101554.03;;;18.92;37.69
39435;BME280;66825;51.880;-0.518;2023-04-16T03:50:45;101548.59;;;18.92;37.75
39435;BME280;66825;51.880;-0.518;2023-04-16T03:53:12;101520.25;;;18.78;37.76
39435;BME280;66825;51.880;-0.518;2023-04-16T03:55:38;101532.75;;;18.89;37.82
39435;BME280;66825;51.880;-0.518;2023-04-16T03:58:03;101543.38;;;18.91;37.87
39435;BME280;66825;51.880;-0.518;2023-04-16T04:00:29;101537.91;;;18.91;37.84
39435;BME280;66825;51.880;-0.518;2023-04-16T04:02:55;101538.72;;;18.91;37.76
39435;BME280;66825;51.880;-0.518;2023-04-16T04:05:21;101522.13;;;18.82;37.86
39435;BME280;66825;51.880;-0.518;2023-04-16T04:07:46;101502.81;;;18.73;37.69
39435;BME280;66825;51.880;-0.518;2023-04-16T04:10:12;101527.03;;;18.85;37.76
39435;BME280;66825;51.880;-0.518;2023-04-16T04:12:38;101531.66;;;18.90;37.62
39435;BME280;66825;51.880;-0.518;2023-04-16T04:15:03;101535.19;;;18.91;37.66
39435;BME280;66825;51.880;-0.518;2023-04-16T04:17:29;101537.13;;;18.90;37.47
39435;BME280;66825;51.880;-0.518;2023-04-16T04:19:55;101466.13;;;18.45;37.66
39435;BME280;66825;51.880;-0.518;2023-04-16T04:22:20;101534.66;;;18.88;37.59
39435;BME280;66825;51.880;-0.518;2023-04-16T04:24:45;101536.28;;;18.89;37.77
39435;BME280;66825;51.880;-0.518;2023-04-16T04:27:11;101544.47;;;18.89;37.70
39435;BME280;66825;51.880;-0.518;2023-04-16T04:29:36;101537.66;;;18.87;37.80
39435;BME280;66825;51.880;-0.518;2023-04-16T04:32:02;101540.94;;;18.89;37.58
39435;BME280;66825;51.880;-0.518;2023-04-16T04:34:27;101475.66;;;18.48;37.63
39435;BME280;66825;51.880;-0.518;2023-04-16T04:36:53;101539.59;;;18.86;37.64
39435;BME280;66825;51.880;-0.518;2023-04-16T04:39:18;101546.41;;;18.89;37.68
39435;BME280;66825;51.880;-0.518;2023-04-16T04:41:46;101540.09;;;18.88;37.65
39435;BME280;66825;51.880;-0.518;2023-04-16T04:44:12;101500.13;;;18.68;37.77
39435;BME280;66825;51.880;-0.518;2023-04-16T04:46:39;101530.88;;;18.84;37.61
39435;BME280;66825;51.880;-0.518;2023-04-16T04:49:04;101519.41;;;18.82;37.60
39435;BME280;66825;51.880;-0.518;2023-04-16T04:51:31;101513.97;;;18.77;37.73
39435;BME280;66825;51.880;-0.518;2023-04-16T04:53:56;101531.13;;;18.88;37.72
39435;BME280;66825;51.880;-0.518;2023-04-16T04:56:22;101520.53;;;18.76;37.65
39435;BME280;66825;51.880;-0.518;2023-04-16T04:58:50;101535.75;;;18.87;37.78
39435;BME280;66825;51.880;-0.518;2023-04-16T05:01:16;101533.84;;;18.88;37.75
39435;BME280;66825;51.880;-0.518;2023-04-16T05:03:41;101507.72;;;18.71;37.84
39435;BME280;66825;51.880;-0.518;2023-04-16T05:06:07;101434.56;;;18.29;37.84
39435;BME280;66825;51.880;-0.518;2023-04-16T05:08:32;101532.22;;;18.87;37.82
39435;BME280;66825;51.880;-0.518;2023-04-16T05:10:58;101531.13;;;18.88;37.62
39435;BME280;66825;51.880;-0.518;2023-04-16T05:13:23;101543.13;;;18.87;37.67
39435;BME280;66825;51.880;-0.518;2023-04-16T05:15:49;101535.75;;;18.87;37.66
39435;BME280;66825;51.880;-0.518;2023-04-16T05:18:14;101534.94;;;18.87;37.61
39435;BME280;66825;51.880;-0.518;2023-04-16T05:20:40;101541.50;;;18.86;37.71
39435;BME280;66825;51.880;-0.518;2023-04-16T05:23:06;101532.22;;;18.87;37.64
39435;BME280;66825;51.880;-0.518;2023-04-16T05:25:31;101537.97;;;18.85;37.70
39435;BME280;66825;51.880;-0.518;2023-04-16T05:27:57;101536.31;;;18.84;37.72
39435;BME280;66825;51.880;-0.518;2023-04-16T05:30:22;101541.50;;;18.86;37.75
39435;BME280;66825;51.880;-0.518;2023-04-16T05:32:48;101545.06;;;18.86;37.69
39435;BME280;66825;51.880;-0.518;2023-04-16T05:35:13;101540.44;;;18.82;37.73
39435;BME280;66825;51.880;-0.518;2023-04-16T05:37:38;101544.22;;;18.86;37.79
39435;BME280;66825;51.880;-0.518;2023-04-16T05:40:04;101540.16;;;18.83;37.68
39435;BME280;66825;51.880;-0.518;2023-04-16T05:42:30;101545.31;;;18.85;37.69
39435;BME280;66825;51.880;-0.518;2023-04-16T05:44:56;101550.78;;;18.85;37.60
39435;BME280;66825;51.880;-0.518;2023-04-16T05:47:23;101535.81;;;18.77;37.63
39435;BME280;66825;51.880;-0.518;2023-04-16T05:49:48;101553.50;;;18.85;37.74
39435;BME280;66825;51.880;-0.518;2023-04-16T05:52:14;101552.16;;;18.82;37.83
39435;BME280;66825;51.880;-0.518;2023-04-16T05:54:39;101553.50;;;18.85;37.70
39435;BME280;66825;51.880;-0.518;2023-04-16T05:57:05;101547.25;;;18.84;37.79
39435;BME280;66825;51.880;-0.518;2023-04-16T05:59:30;101553.50;;;18.85;37.70
39435;BME280;66825;51.880;-0.518;2023-04-16T06:01:56;101546.41;;;18.84;37.69
39435;BME280;66825;51.880;-0.518;2023-04-16T06:04:22;101551.06;;;18.83;37.68
39435;BME280;66825;51.880;-0.518;2023-04-16T06:06:47;101551.88;;;18.84;37.63
39435;BME280;66825;51.880;-0.518;2023-04-16T06:09:13;101543.72;;;18.79;37.70
39435;BME280;66825;51.880;-0.518;2023-04-16T06:11:38;101549.13;;;18.84;37.91
39435;BME280;66825;51.880;-0.518;2023-04-16T06:14:04;101565.53;;;18.84;37.72
39435;BME280;66825;51.880;-0.518;2023-04-16T06:16:29;101563.63;;;18.84;37.68
39435;BME280;66825;51.880;-0.518;2023-04-16T06:18:55;101534.22;;;18.71;37.66
39435;BME280;66825;51.880;-0.518;2023-04-16T06:21:20;101556.53;;;18.83;37.55
39435;BME280;66825;51.880;-0.518;2023-04-16T06:23:46;101568.25;;;18.84;37.58
39435;BME280;66825;51.880;-0.518;2023-04-16T06:26:11;101564.72;;;18.83;37.68
39435;BME280;66825;51.880;-0.518;2023-04-16T06:28:37;101562.00;;;18.83;37.73
39435;BME280;66825;51.880;-0.518;2023-04-16T06:31:03;101570.19;;;18.83;37.66
39435;BME280;66825;51.880;-0.518;2023-04-16T06:33:28;101560.66;;;18.81;37.65
39435;BME280;66825;51.880;-0.518;2023-04-16T06:35:54;101566.66;;;18.83;37.70
39435;BME280;66825;51.880;-0.518;2023-04-16T06:38:19;101567.44;;;18.83;37.71
39435;BME280;66825;51.880;-0.518;2023-04-16T06:40:44;101576.44;;;18.84;37.73
39435;BME280;66825;51.880;-0.518;2023-04-16T06:43:10;101576.72;;;18.82;37.64
39435;BME280;66825;51.880;-0.518;2023-04-16T06:45:36;101574.84;;;18.83;37.83
39435;BME280;66825;51.880;-0.518;2023-04-16T06:48:01;101565.03;;;18.77;37.67
39435;BME280;66825;51.880;-0.518;2023-04-16T06:50:28;101575.94;;;18.82;37.74
39435;BME280;66825;51.880;-0.518;2023-04-16T06:52:54;101575.09;;;18.81;37.64
39435;BME280;66825;51.880;-0.518;2023-04-16T06:55:20;101577.56;;;18.83;37.76
39435;BME280;66825;51.880;-0.518;2023-04-16T06:57:45;101579.47;;;18.82;37.79
39435;BME280;66825;51.880;-0.518;2023-04-16T07:00:11;101577.81;;;18.81;37.63
39435;BME280;66825;51.880;-0.518;2023-04-16T07:02:37;101588.50;;;18.83;37.79
39435;BME280;66825;51.880;-0.518;2023-04-16T07:05:02;101586.84;;;18.82;37.72
39435;BME280;66825;51.880;-0.518;2023-04-16T07:07:28;101591.47;;;18.81;37.64
39435;BME280;66825;51.880;-0.518;2023-04-16T07:09:53;101592.31;;;18.82;37.80
39435;BME280;66825;51.880;-0.518;2023-04-16T07:12:19;101588.50;;;18.83;37.78
39435;BME280;66825;51.880;-0.518;2023-04-16T07:14:45;101589.59;;;18.82;37.83
39435;BME280;66825;51.880;-0.518;2023-04-16T07:17:11;101580.56;;;18.81;37.70
39435;BME280;66825;51.880;-0.518;2023-04-16T07:19:36;101591.47;;;18.81;37.72
39435;BME280;66825;51.880;-0.518;2023-04-16T07:22:02;101587.94;;;18.81;37.62
39435;BME280;66825;51.880;-0.518;2023-04-16T07:24:28;101596.94;;;18.81;37.71
39435;BME280;66825;51.880;-0.518;2023-04-16T07:26:53;101601.59;;;18.81;37.70
39435;BME280;66825;51.880;-0.518;2023-04-16T07:29:19;101596.13;;;18.81;37.64
39435;BME280;66825;51.880;-0.518;2023-04-16T07:31:44;101596.94;;;18.81;37.70
39435;BME280;66825;51.880;-0.518;2023-04-16T07:34:10;101608.69;;;18.82;37.73
39435;BME280;66825;51.880;-0.518;2023-04-16T07:36:36;101599.66;;;18.81;37.79
39435;BME280;66825;51.880;-0.518;2023-04-16T07:39:01;101607.06;;;18.81;37.73
39435;BME280;66825;51.880;-0.518;2023-04-16T07:41:27;101612.53;;;18.81;37.75
39435;BME280;66825;51.880;-0.518;2023-04-16T07:43:56;101612.53;;;18.81;37.88
39435;BME280;66825;51.880;-0.518;2023-04-16T07:46:22;101605.44;;;18.75;37.77
39435;BME280;66825;51.880;-0.518;2023-04-16T07:48:47;101607.34;;;18.74;37.74
39435;BME280;66825;51.880;-0.518;2023-04-16T07:51:13;101622.34;;;18.82;37.80
39435;BME280;66825;51.880;-0.518;2023-04-16T07:53:39;101617.44;;;18.79;37.84
39435;BME280;66825;51.880;-0.518;2023-04-16T07:56:05;101625.88;;;18.82;37.70
39435;BME280;66825;51.880;-0.518;2023-04-16T07:58:30;101628.91;;;18.81;37.75
39435;BME280;66825;51.880;-0.518;2023-04-16T08:00:56;101628.91;;;18.81;37.70
39435;BME280;66825;51.880;-0.518;2023-04-16T08:03:21;101641.47;;;18.82;37.75
39435;BME280;66825;51.880;-0.518;2023-04-16T08:05:47;101632.44;;;18.81;37.68
39435;BME280;66825;51.880;-0.518;2023-04-16T08:08:12;101568.19;;;18.39;37.84
39435;BME280;66825;51.880;-0.518;2023-04-16T08:10:38;101614.75;;;18.68;37.73
39435;BME280;66825;51.880;-0.518;2023-04-16T08:13:04;101637.88;;;18.81;37.65
39435;BME280;66825;51.880;-0.518;2023-04-16T08:15:29;101640.63;;;18.81;37.73
39435;BME280;66825;51.880;-0.518;2023-04-16T08:17:55;101621.03;;;18.69;37.77
39435;BME280;66825;51.880;-0.518;2023-04-16T08:20:21;101602.78;;;18.59;37.87
39435;BME280;66825;51.880;-0.518;2023-04-16T08:22:47;101620.75;;;18.76;37.71
39435;BME280;66825;51.880;-0.518;2023-04-16T08:25:13;101607.41;;;18.64;37.81
39435;BME280;66825;51.880;-0.518;2023-04-16T08:27:39;101636.81;;;18.82;37.72
39435;BME280;66825;51.880;-0.518;2023-04-16T08:30:04;101639.53;;;18.82;37.63
39435;BME280;66825;51.880;-0.518;2023-04-16T08:32:30;101611.22;;;18.63;37.83
39435;BME280;66825;51.880;-0.518;2023-04-16T08:34:56;101641.16;;;18.83;37.85
39435;BME280;66825;51.880;-0.518;2023-04-16T08:37:22;101638.44;;;18.83;37.61
39435;BME280;66825;51.880;-0.518;2023-04-16T08:39:47;101631.91;;;18.79;37.80
39435;BME280;66825;51.880;-0.518;2023-04-16T08:42:30;101640.63;;;18.81;37.65
39435;BME280;66825;51.880;-0.518;2023-04-16T08:45:07;101636.84;;;18.77;37.73
39435;BME280;66825;51.880;-0.518;2023-04-16T08:47:35;101648.56;;;18.83;37.96
39435;BME280;66825;51.880;-0.518;2023-04-16T08:50:04;101645.53;;;18.84;37.75
39435;BME280;66825;51.880;-0.518;2023-04-16T08:52:30;101649.34;;;18.83;37.64
39435;BME280;66825;51.880;-0.518;2023-04-16T08:55:11;101653.72;;;18.84;37.84
39435;BME280;66825;51.880;-0.518;2023-04-16T08:57:46;101651.00;;;18.84;37.79
39435;BME280;66825;51.880;-0.518;2023-04-16T09:00:13;101648.28;;;18.84;37.62
39435;BME280;66825;51.880;-0.518;2023-04-16T09:02:39;101646.34;;;18.85;37.71
39435;BME280;66825;51.880;-0.518;2023-04-16T09:05:06;101636.00;;;18.77;37.66
39435;BME280;66825;51.880;-0.518;2023-04-16T09:07:33;101651.81;;;18.85;37.72
39435;BME280;66825;51.880;-0.518;2023-04-16T09:09:59;101666.28;;;18.85;37.81
39435;BME280;66825;51.880;-0.518;2023-04-16T09:12:25;101665.19;;;18.86;37.64
39435;BME280;66825;51.880;-0.518;2023-04-16T09:14:51;101666.00;;;18.87;37.88
39435;BME280;66825;51.880;-0.518;2023-04-16T09:17:17;101661.66;;;18.81;37.67
39435;BME280;66825;51.880;-0.518;2023-04-16T09:19:46;101668.44;;;18.88;37.88
39435;BME280;66825;51.880;-0.518;2023-04-16T09:22:13;101671.16;;;18.88;37.85
39435;BME280;66825;51.880;-0.518;2023-04-16T09:24:38;101673.09;;;18.88;37.78
39435;BME280;66825;51.880;-0.518;2023-04-16T09:27:04;101677.47;;;18.89;37.81
39435;BME280;66825;51.880;-0.518;2023-04-16T09:29:38;101672.00;;;18.89;37.92
39435;BME280;66825;51.880;-0.518;2023-04-16T09:32:05;101666.00;;;18.87;37.78
39435;BME280;66825;51.880;-0.518;2023-04-16T09:34:32;101657.84;;;18.82;37.89
39435;BME280;66825;51.880;-0.518;2023-04-16T09:37:16;101679.09;;;18.90;37.68
39435;BME280;66825;51.880;-0.518;2023-04-16T09:39:43;101670.38;;;18.88;37.60
39435;BME280;66825;51.880;-0.518;2023-04-16T09:42:09;101673.66;;;18.90;37.80
39435;BME280;66825;51.880;-0.518;2023-04-16T09:44:35;101681.84;;;18.90;37.62
39435;BME280;66825;51.880;-0.518;2023-04-16T09:47:08;101677.19;;;18.91;37.78
39435;BME280;66825;51.880;-0.518;2023-04-16T09:49:34;101670.91;;;18.90;37.73
39435;BME280;66825;51.880;-0.518;2023-04-16T09:52:08;101675.25;;;18.91;37.71
39435;BME280;66825;51.880;-0.518;2023-04-16T09:54:36;101681.59;;;18.92;37.64
39435;BME280;66825;51.880;-0.518;2023-04-16T09:57:02;101680.72;;;18.91;37.90
39435;BME280;66825;51.880;-0.518;2023-04-16T09:59:27;101680.50;;;18.93;37.70
39435;BME280;66825;51.880;-0.518;2023-04-16T10:01:59;101667.38;;;18.84;37.61
39435;BME280;66825;51.880;-0.518;2023-04-16T10:04:24;101688.69;;;18.93;37.64
39435;BME280;66825;51.880;-0.518;2023-04-16T10:07:05;101625.19;;;18.51;37.88
39435;BME280;66825;51.880;-0.518;2023-04-16T10:09:40;101687.56;;;18.88;37.74
39435;BME280;66825;51.880;-0.518;2023-04-16T10:12:06;101692.22;;;18.93;37.78
39435;BME280;66825;51.880;-0.518;2023-04-16T10:14:32;101691.63;;;18.91;37.76
39435;BME280;66825;51.880;-0.518;2023-04-16T10:16:58;101694.66;;;18.95;37.71
39435;BME280;66825;51.880;-0.518;2023-04-16T10:19:24;101686.47;;;18.89;37.82
39435;BME280;66825;51.880;-0.518;2023-04-16T10:21:51;101689.19;;;18.95;37.77
39435;BME280;66825;51.880;-0.518;2023-04-16T10:24:17;101681.00;;;18.89;37.67
39435;BME280;66825;51.880;-0.518;2023-04-16T10:26:43;101690.03;;;18.95;37.79
39435;BME280;66825;51.880;-0.518;2023-04-16T10:29:10;101683.72;;;18.95;37.77
39435;BME280;66825;51.880;-0.518;2023-04-16T10:31:37;101688.09;;;18.96;37.74
39435;BME280;66825;51.880;-0.518;2023-04-16T10:34:04;101681.00;;;18.95;37.70
39435;BME280;66825;51.880;-0.518;2023-04-16T10:36:35;101686.22;;;18.96;37.79
39435;BME280;66825;51.880;-0.518;2023-04-16T10:39:01;101682.38;;;18.97;37.76
39435;BME280;66825;51.880;-0.518;2023-04-16T10:41:27;101679.91;;;18.96;37.76
39435;BME280;66825;51.880;-0.518;2023-04-16T10:44:05;101688.94;;;18.96;37.85
39435;BME280;66825;51.880;-0.518;2023-04-16T10:46:39;101612.63;;;18.50;37.78
39435;BME280;66825;51.880;-0.518;2023-04-16T10:49:19;101684.00;;;18.98;38.04
39435;BME280;66825;51.880;-0.518;2023-04-16T10:51:57;101685.13;;;18.97;37.78
39435;BME280;66825;51.880;-0.518;2023-04-16T10:54:29;101613.19;;;18.52;37.73
39435;BME280;66825;51.880;-0.518;2023-04-16T10:57:02;101683.19;;;18.98;37.87
39435;BME280;66825;51.880;-0.518;2023-04-16T10:59:35;101676.63;;;18.99;37.76
39435;BME280;66825;51.880;-0.518;2023-04-16T11:02:13;101669.28;;;18.94;37.72
39435;BME280;66825;51.880;-0.518;2023-04-16T11:04:41;101680.16;;;18.99;37.73
39435;BME280;66825;51.880;-0.518;2023-04-16T11:12:24;101677.19;;;19.01;37.68
39435;BME280;66825;51.880;-0.518;2023-04-16T11:14:53;101687.28;;;19.00;37.67
39435;BME280;66825;51.880;-0.518;2023-04-16T11:17:20;101679.06;;;19.00;37.75
39435;BME280;66825;51.880;-0.518;2023-04-16T11:19:46;101673.09;;;18.93;37.63
39435;BME280;66825;51.880;-0.518;2023-04-16T11:22:13;101677.97;;;19.01;37.68
39435;BME280;66825;51.880;-0.518;2023-04-16T11:24:42;101678.78;;;19.02;37.79
39435;BME280;66825;51.880;-0.518;2023-04-16T11:27:07;101685.09;;;19.02;37.83
39435;BME280;66825;51.880;-0.518;2023-04-16T11:29:33;101676.91;;;19.02;37.88
39435;BME280;66825;51.880;-0.518;2023-04-16T11:31:58;101682.34;;;19.02;37.76
39435;BME280;66825;51.880;-0.518;2023-04-16T11:34:24;101679.63;;;19.02;37.74
39435;BME280;66825;51.880;-0.518;2023-04-16T11:36:50;101678.53;;;19.03;37.67
39435;BME280;66825;51.880;-0.518;2023-04-16T11:39:16;101671.47;;;18.92;37.75
39435;BME280;66825;51.880;-0.518;2023-04-16T11:41:46;101691.91;;;19.05;37.79
39435;BME280;66825;51.880;-0.518;2023-04-16T11:44:30;101674.97;;;19.03;37.74
39435;BME280;66825;51.880;-0.518;2023-04-16T11:46:56;101677.44;;;19.04;37.80
39435;BME280;66825;51.880;-0.518;2023-04-16T11:49:30;101680.16;;;19.04;37.85
39435;BME280;66825;51.880;-0.518;2023-04-16T11:51:57;101665.69;;;19.04;37.79
39435;BME280;66825;51.880;-0.518;2023-04-16T11:54:23;101669.81;;;18.96;37.89
39435;BME280;66825;51.880;-0.518;2023-04-16T11:56:51;101612.59;;;18.60;37.75
39435;BME280;66825;51.880;-0.518;2023-04-16T11:59:18;101679.03;;;19.05;37.70
39435;BME280;66825;51.880;-0.518;2023-04-16T12:01:46;101680.97;;;19.05;37.73
39435;BME280;66825;51.880;-0.518;2023-04-16T12:04:13;101624.31;;;18.71;37.96
39435;BME280;66825;51.880;-0.518;2023-04-16T12:06:40;101684.25;;;19.07;37.83
39435;BME280;66825;51.880;-0.518;2023-04-16T12:09:25;101603.88;;;18.58;37.77
39435;BME280;66825;51.880;-0.518;2023-04-16T12:11:51;101662.72;;;18.95;37.91
39435;BME280;66825;51.880;-0.518;2023-04-16T12:14:17;101673.06;;;19.03;37.84
39435;BME280;66825;51.880;-0.518;2023-04-16T12:16:42;101684.25;;;19.07;37.82
39435;BME280;66825;51.880;-0.518;2023-04-16T12:19:10;101665.75;;;18.94;37.89
39435;BME280;66825;51.880;-0.518;2023-04-16T12:21:41;101691.06;;;19.10;37.59
39435;BME280;66825;51.880;-0.518;2023-04-16T12:24:08;101680.94;;;19.10;37.84
39435;BME280;66825;51.880;-0.518;2023-04-16T12:26:40;101682.31;;;19.08;37.83
39435;BME280;66825;51.880;-0.518;2023-04-16T12:29:23;101685.31;;;19.11;37.84
39435;BME280;66825;51.880;-0.518;2023-04-16T12:31:49;101669.25;;;18.99;37.86
39435;BME280;66825;51.880;-0.518;2023-04-16T12:34:16;101686.16;;;19.12;37.74
39435;BME280;66825;51.880;-0.518;2023-04-16T12:36:43;101688.03;;;19.11;37.92
39435;BME280;66825;51.880;-0.518;2023-04-16T12:39:09;101691.59;;;19.12;37.86
39435;BME280;66825;51.880;-0.518;2023-04-16T12:41:36;101684.22;;;19.12;37.74
39435;BME280;66825;51.880;-0.518;2023-04-16T12:44:21;101695.94;;;19.13;37.84